createdAt,value
2023-05-21T00:00:39.687Z,505.00
2023-05-21T00:01:39.675Z,504.00
2023-05-21T00:02:39.766Z,504.00
2023-05-21T00:03:39.735Z,504.00
2023-05-21T00:04:39.680Z,507.00
2023-05-21T00:05:39.771Z,506.00
2023-05-21T00:06:39.642Z,508.00
2023-05-21T00:07:39.669Z,512.00
2023-05-21T00:08:40.547Z,510.00
2023-05-21T00:09:39.655Z,509.00
2023-05-21T00:10:39.649Z,500.00
2023-05-21T00:11:39.628Z,515.00
2023-05-21T00:12:39.672Z,512.00
2023-05-21T00:13:39.595Z,509.00
2023-05-21T00:14:39.575Z,507.00
2023-05-21T00:15:39.577Z,510.00
2023-05-21T00:16:39.621Z,509.00
2023-05-21T00:17:39.600Z,507.00
2023-05-21T00:18:39.548Z,511.00
2023-05-21T00:19:39.576Z,511.00
2023-05-21T00:20:39.556Z,509.00
2023-05-21T00:21:39.554Z,509.00
2023-05-21T00:22:39.541Z,508.00
2023-05-21T00:23:39.529Z,509.00
2023-05-21T00:24:39.547Z,509.00
2023-05-21T00:25:39.545Z,510.00
2023-05-21T00:26:39.506Z,508.00
2023-05-21T00:27:39.503Z,512.00
2023-05-21T00:28:39.458Z,512.00
2023-05-21T00:29:39.565Z,514.00
2023-05-21T00:30:39.488Z,513.00
2023-05-21T00:31:39.521Z,511.00
2023-05-21T00:32:39.555Z,511.00
2023-05-21T00:33:39.539Z,510.00
2023-05-21T00:34:39.549Z,513.00
2023-05-21T00:35:39.530Z,513.00
2023-05-21T00:36:39.549Z,515.00
2023-05-21T00:37:39.547Z,515.00
2023-05-21T00:38:39.575Z,514.00
2023-05-21T00:39:39.580Z,511.00
2023-05-21T00:40:39.609Z,512.00
2023-05-21T00:41:39.587Z,515.00
2023-05-21T00:42:39.590Z,515.00
2023-05-21T00:43:39.592Z,516.00
2023-05-21T00:44:39.602Z,510.00
2023-05-21T00:45:39.761Z,508.00
2023-05-21T00:46:39.656Z,509.00
2023-05-21T00:47:39.740Z,511.00
2023-05-21T00:48:39.691Z,512.00
2023-05-21T00:49:39.686Z,512.00
2023-05-21T00:50:39.711Z,510.00
2023-05-21T00:51:39.718Z,510.00
2023-05-21T00:52:39.720Z,510.00
2023-05-21T00:53:39.748Z,514.00
2023-05-21T00:54:39.734Z,508.00
2023-05-21T00:55:39.748Z,510.00
2023-05-21T00:56:39.779Z,512.00
2023-05-21T00:57:39.785Z,508.00
2023-05-21T00:58:39.809Z,509.00
2023-05-21T00:59:39.825Z,510.00
2023-05-21T01:00:39.834Z,511.00
2023-05-21T01:01:39.838Z,509.00
2023-05-21T01:02:39.952Z,510.00
2023-05-21T01:03:39.883Z,509.00
2023-05-21T01:04:39.854Z,513.00
2023-05-21T01:05:39.917Z,512.00
2023-05-21T01:06:39.874Z,510.00
2023-05-21T01:07:39.953Z,509.00
2023-05-21T01:08:39.891Z,507.00
2023-05-21T01:09:39.912Z,509.00
2023-05-21T01:10:40.602Z,510.00
2023-05-21T01:11:39.949Z,512.00
2023-05-21T01:12:39.964Z,507.00
2023-05-21T01:13:39.987Z,510.00
2023-05-21T01:14:40.038Z,511.00
2023-05-21T01:15:40.030Z,512.00
2023-05-21T01:16:40.095Z,511.00
2023-05-21T01:17:40.040Z,509.00
2023-05-21T01:18:40.101Z,513.00
2023-05-21T01:19:40.074Z,509.00
2023-05-21T01:20:40.088Z,507.00
2023-05-21T01:21:40.077Z,512.00
2023-05-21T01:22:41.075Z,510.00
2023-05-21T01:23:40.113Z,511.00
2023-05-21T01:24:40.159Z,510.00
2023-05-21T01:25:40.164Z,511.00
2023-05-21T01:26:40.169Z,509.00
2023-05-21T01:27:40.170Z,507.00
2023-05-21T01:28:40.235Z,510.00
2023-05-21T01:29:40.220Z,508.00
2023-05-21T01:30:40.299Z,506.00
2023-05-21T01:31:40.278Z,512.00
2023-05-21T01:32:40.353Z,511.00
2023-05-21T01:33:40.410Z,514.00
2023-05-21T01:34:40.353Z,507.00
2023-05-21T01:35:40.391Z,511.00
2023-05-21T01:36:40.439Z,506.00
2023-05-21T01:37:40.404Z,508.00
2023-05-21T01:38:40.458Z,515.00
2023-05-21T01:39:40.508Z,513.00
2023-05-21T01:40:40.522Z,511.00
2023-05-21T01:41:40.526Z,511.00
2023-05-21T01:42:40.536Z,511.00
2023-05-21T01:43:40.593Z,512.00
2023-05-21T01:44:40.611Z,508.00
2023-05-21T01:45:40.653Z,514.00
2023-05-21T01:46:40.699Z,509.00
2023-05-21T01:47:40.698Z,512.00
2023-05-21T01:48:40.664Z,511.00
2023-05-21T01:49:40.687Z,509.00
2023-05-21T01:50:40.745Z,510.00
2023-05-21T01:51:40.712Z,514.00
2023-05-21T01:52:40.720Z,509.00
2023-05-21T01:53:40.740Z,515.00
2023-05-21T01:54:40.776Z,510.00
2023-05-21T01:55:40.767Z,511.00
2023-05-21T01:56:40.775Z,510.00
2023-05-21T01:57:40.794Z,508.00
2023-05-21T01:58:40.816Z,512.00
2023-05-21T01:59:40.854Z,511.00
2023-05-21T02:00:40.851Z,508.00
2023-05-21T02:01:40.868Z,511.00
2023-05-21T02:02:40.934Z,503.00
2023-05-21T02:03:41.684Z,512.00
2023-05-21T02:04:41.595Z,512.00
2023-05-21T02:05:41.048Z,512.00
2023-05-21T02:06:41.055Z,513.00
2023-05-21T02:07:41.060Z,512.00
2023-05-21T02:08:42.622Z,511.00
2023-05-21T02:09:44.677Z,511.00
2023-05-21T02:10:41.084Z,520.00
2023-05-21T02:11:41.062Z,513.00
2023-05-21T02:12:41.055Z,512.00
2023-05-21T02:13:41.041Z,511.00
2023-05-21T02:14:41.058Z,510.00
2023-05-21T02:15:41.037Z,513.00
2023-05-21T02:16:41.028Z,516.00
2023-05-21T02:17:41.084Z,516.00
2023-05-21T02:18:41.663Z,510.00
2023-05-21T02:19:41.639Z,512.00
2023-05-21T02:20:41.052Z,511.00
2023-05-21T02:21:41.018Z,513.00
2023-05-21T02:22:41.020Z,509.00
2023-05-21T02:23:40.979Z,512.00
2023-05-21T02:24:40.981Z,508.00
2023-05-21T02:25:40.962Z,510.00
2023-05-21T02:26:40.952Z,512.00
2023-05-21T02:27:40.926Z,506.00
2023-05-21T02:28:40.943Z,510.00
2023-05-21T02:29:40.957Z,510.00
2023-05-21T02:30:41.642Z,514.00
2023-05-21T02:31:40.894Z,510.00
2023-05-21T02:32:40.928Z,509.00
2023-05-21T02:33:40.945Z,510.00
2023-05-21T02:34:40.913Z,512.00
2023-05-21T02:35:40.884Z,507.00
2023-05-21T02:36:40.882Z,510.00
2023-05-21T02:37:40.863Z,507.00
2023-05-21T02:38:40.855Z,513.00
2023-05-21T02:39:40.873Z,506.00
2023-05-21T02:40:40.847Z,510.00
2023-05-21T02:41:40.859Z,512.00
2023-05-21T02:42:40.838Z,511.00
2023-05-21T02:43:41.623Z,513.00
2023-05-21T02:44:40.819Z,510.00
2023-05-21T02:45:40.850Z,510.00
2023-05-21T02:46:40.825Z,510.00
2023-05-21T02:47:41.118Z,509.00
2023-05-21T02:48:40.837Z,510.00
2023-05-21T02:49:40.810Z,512.00
2023-05-21T02:50:40.850Z,511.00
2023-05-21T02:51:40.792Z,510.00
2023-05-21T02:52:40.825Z,511.00
2023-05-21T02:53:40.771Z,510.00
2023-05-21T02:54:40.743Z,510.00
2023-05-21T02:55:41.765Z,511.00
2023-05-21T02:56:40.759Z,511.00
2023-05-21T02:57:40.730Z,512.00
2023-05-21T02:58:40.727Z,514.00
2023-05-21T02:59:40.714Z,514.00
2023-05-21T03:00:40.734Z,511.00
2023-05-21T03:01:40.756Z,509.00
2023-05-21T03:02:40.838Z,516.00
2023-05-21T03:03:40.717Z,509.00
2023-05-21T03:04:40.659Z,507.00
2023-05-21T03:05:40.689Z,515.00
2023-05-21T03:06:40.669Z,510.00
2023-05-21T03:07:40.658Z,509.00
2023-05-21T03:08:40.628Z,510.00
2023-05-21T03:09:40.644Z,512.00
2023-05-21T03:10:40.630Z,511.00
2023-05-21T03:11:40.621Z,510.00
2023-05-21T03:12:40.616Z,509.00
2023-05-21T03:13:40.596Z,508.00
2023-05-21T03:14:40.575Z,510.00
2023-05-21T03:15:40.650Z,514.00
2023-05-21T03:16:40.651Z,512.00
2023-05-21T03:17:40.637Z,508.00
2023-05-21T03:18:40.564Z,512.00
2023-05-21T03:19:40.599Z,512.00
2023-05-21T03:20:40.594Z,510.00
2023-05-21T03:21:40.584Z,506.00
2023-05-21T03:22:40.633Z,514.00
2023-05-21T03:23:40.620Z,510.00
2023-05-21T03:24:40.655Z,512.00
2023-05-21T03:25:40.646Z,510.00
2023-05-21T03:26:40.688Z,511.00
2023-05-21T03:27:40.692Z,512.00
2023-05-21T03:28:40.719Z,512.00
2023-05-21T03:29:40.740Z,516.00
2023-05-21T03:30:41.168Z,512.00
2023-05-21T03:31:40.857Z,511.00
2023-05-21T03:32:40.824Z,512.00
2023-05-21T03:33:40.822Z,510.00
2023-05-21T03:34:40.816Z,515.00
2023-05-21T03:35:40.855Z,509.00
2023-05-21T03:36:40.833Z,512.00
2023-05-21T03:37:40.863Z,510.00
2023-05-21T03:38:40.870Z,512.00
2023-05-21T03:39:40.894Z,512.00
2023-05-21T03:40:40.935Z,515.00
2023-05-21T03:41:40.935Z,510.00
2023-05-21T03:42:40.949Z,512.00
2023-05-21T03:43:40.959Z,512.00
2023-05-21T03:44:40.977Z,513.00
2023-05-21T03:45:44.218Z,511.00
2023-05-21T03:46:41.013Z,516.00
2023-05-21T03:47:41.002Z,515.00
2023-05-21T03:48:40.988Z,512.00
2023-05-21T03:49:40.944Z,512.00
2023-05-21T03:50:41.212Z,509.00
2023-05-21T03:51:40.932Z,510.00
2023-05-21T03:52:40.919Z,510.00
2023-05-21T03:53:40.949Z,512.00
2023-05-21T03:54:40.901Z,508.00
2023-05-21T03:55:41.190Z,510.00
2023-05-21T03:56:40.911Z,510.00
2023-05-21T03:57:40.910Z,511.00
2023-05-21T03:58:40.876Z,513.00
2023-05-21T03:59:40.872Z,508.00
2023-05-21T04:00:40.892Z,514.00
2023-05-21T04:01:40.869Z,510.00
2023-05-21T04:02:40.940Z,508.00
2023-05-21T04:03:41.281Z,509.00
2023-05-21T04:04:40.901Z,509.00
2023-05-21T04:05:40.823Z,510.00
2023-05-21T04:06:40.845Z,509.00
2023-05-21T04:07:40.814Z,511.00
2023-05-21T04:08:40.812Z,511.00
2023-05-21T04:09:40.803Z,510.00
2023-05-21T04:10:40.791Z,510.00
2023-05-21T04:11:40.762Z,507.00
2023-05-21T04:12:40.758Z,509.00
2023-05-21T04:13:40.766Z,511.00
2023-05-21T04:14:40.776Z,510.00
2023-05-21T04:15:40.769Z,510.00
2023-05-21T04:16:40.716Z,512.00
2023-05-21T04:17:40.715Z,511.00
2023-05-21T04:18:40.737Z,510.00
2023-05-21T04:19:40.751Z,509.00
2023-05-21T04:20:40.734Z,509.00
2023-05-21T04:21:40.691Z,508.00
2023-05-21T04:22:40.696Z,512.00
2023-05-21T04:23:40.681Z,514.00
2023-05-21T04:24:40.672Z,508.00
2023-05-21T04:25:40.685Z,511.00
2023-05-21T04:26:40.632Z,509.00
2023-05-21T04:27:40.639Z,511.00
2023-05-21T04:28:40.637Z,513.00
2023-05-21T04:29:40.639Z,510.00
2023-05-21T04:30:40.659Z,510.00
2023-05-21T04:31:40.617Z,508.00
2023-05-21T04:32:40.661Z,510.00
2023-05-21T04:33:40.619Z,510.00
2023-05-21T04:34:40.610Z,513.00
2023-05-21T04:35:40.710Z,511.00
2023-05-21T04:36:40.601Z,508.00
2023-05-21T04:37:40.581Z,510.00
2023-05-21T04:38:40.569Z,509.00
2023-05-21T04:39:40.579Z,507.00
2023-05-21T04:40:40.740Z,507.00
2023-05-21T04:41:40.536Z,512.00
2023-05-21T04:42:40.539Z,505.00
2023-05-21T04:43:40.543Z,511.00
2023-05-21T04:44:40.554Z,511.00
2023-05-21T04:45:40.511Z,510.00
2023-05-21T04:46:41.941Z,509.00
2023-05-21T04:47:40.542Z,511.00
2023-05-21T04:48:40.501Z,508.00
2023-05-21T04:49:40.466Z,511.00
2023-05-21T04:50:40.707Z,510.00
2023-05-21T04:51:40.476Z,508.00
2023-05-21T04:52:40.456Z,511.00
2023-05-21T04:53:40.425Z,508.00
2023-05-21T04:54:40.411Z,510.00
2023-05-21T04:55:40.698Z,509.00
2023-05-21T04:56:40.438Z,508.00
2023-05-21T04:57:40.467Z,508.00
2023-05-21T04:58:40.471Z,509.00
2023-05-21T04:59:40.531Z,511.00
2023-05-21T05:00:40.535Z,509.00
2023-05-21T05:01:40.555Z,510.00
2023-05-21T05:02:40.572Z,514.00
2023-05-21T05:03:40.642Z,514.00
2023-05-21T05:04:40.641Z,516.00
2023-05-21T05:05:40.746Z,515.00
2023-05-21T05:06:41.210Z,510.00
2023-05-21T05:07:40.672Z,512.00
2023-05-21T05:08:40.676Z,514.00
2023-05-21T05:09:40.703Z,512.00
2023-05-21T05:10:40.726Z,512.00
2023-05-21T05:11:40.716Z,510.00
2023-05-21T05:12:40.722Z,513.00
2023-05-21T05:13:41.287Z,513.00
2023-05-21T05:14:40.785Z,510.00
2023-05-21T05:15:41.216Z,512.00
2023-05-21T05:16:40.859Z,512.00
2023-05-21T05:17:40.921Z,513.00
2023-05-21T05:18:40.830Z,513.00
2023-05-21T05:19:40.857Z,515.00
2023-05-21T05:20:41.228Z,515.00
2023-05-21T05:21:40.931Z,511.00
2023-05-21T05:22:40.923Z,509.00
2023-05-21T05:23:40.950Z,514.00
2023-05-21T05:24:40.990Z,512.00
2023-05-21T05:25:41.011Z,514.00
2023-05-21T05:26:41.013Z,515.00
2023-05-21T05:27:41.033Z,513.00
2023-05-21T05:28:41.061Z,513.00
2023-05-21T05:29:41.123Z,514.00
2023-05-21T05:30:41.235Z,511.00
2023-05-21T05:31:41.225Z,513.00
2023-05-21T05:32:41.217Z,514.00
2023-05-21T05:33:41.193Z,515.00
2023-05-21T05:34:41.205Z,516.00
2023-05-21T05:35:41.746Z,513.00
2023-05-21T05:36:41.243Z,515.00
2023-05-21T05:37:41.290Z,514.00
2023-05-21T05:38:41.324Z,517.00
2023-05-21T05:39:41.308Z,513.00
2023-05-21T05:40:41.722Z,513.00
2023-05-21T05:41:41.364Z,513.00
2023-05-21T05:42:41.418Z,515.00
2023-05-21T05:43:41.501Z,513.00
2023-05-21T05:44:41.460Z,514.00
2023-05-21T05:45:41.738Z,513.00
2023-05-21T05:46:41.523Z,513.00
2023-05-21T05:47:41.509Z,514.00
2023-05-21T05:48:41.496Z,515.00
2023-05-21T05:49:41.517Z,518.00
2023-05-21T05:50:41.722Z,514.00
2023-05-21T05:51:41.628Z,514.00
2023-05-21T05:52:41.555Z,515.00
2023-05-21T05:53:41.606Z,514.00
2023-05-21T05:54:41.629Z,512.00
2023-05-21T05:55:41.638Z,516.00
2023-05-21T05:56:41.646Z,515.00
2023-05-21T05:57:43.266Z,514.00
2023-05-21T05:58:41.678Z,518.00
2023-05-21T05:59:41.654Z,518.00
2023-05-21T06:00:41.663Z,517.00
2023-05-21T06:01:41.669Z,514.00
2023-05-21T06:02:41.753Z,516.00
2023-05-21T06:03:41.687Z,516.00
2023-05-21T06:04:41.620Z,515.00
2023-05-21T06:05:41.633Z,516.00
2023-05-21T06:06:41.586Z,515.00
2023-05-21T06:07:41.589Z,517.00
2023-05-21T06:08:41.583Z,521.00
2023-05-21T06:09:41.601Z,514.00
2023-05-21T06:10:41.573Z,518.00
2023-05-21T06:11:41.549Z,518.00
2023-05-21T06:12:41.569Z,522.00
2023-05-21T06:13:41.530Z,518.00
2023-05-21T06:14:43.097Z,516.00
2023-05-21T06:15:41.786Z,517.00
2023-05-21T06:16:41.611Z,517.00
2023-05-21T06:17:41.531Z,518.00
2023-05-21T06:18:41.558Z,519.00
2023-05-21T06:19:41.475Z,519.00
2023-05-21T06:20:41.740Z,516.00
2023-05-21T06:21:41.496Z,518.00
2023-05-21T06:22:41.481Z,518.00
2023-05-21T06:23:41.431Z,519.00
2023-05-21T06:24:41.470Z,519.00
2023-05-21T06:25:41.455Z,515.00
2023-05-21T06:26:41.457Z,516.00
2023-05-21T06:27:41.440Z,517.00
2023-05-21T06:28:41.437Z,520.00
2023-05-21T06:29:41.438Z,522.00
2023-05-21T06:30:41.757Z,515.00
2023-05-21T06:31:41.411Z,521.00
2023-05-21T06:32:41.454Z,520.00
2023-05-21T06:33:41.489Z,522.00
2023-05-21T06:34:41.420Z,518.00
2023-05-21T06:35:41.804Z,520.00
2023-05-21T06:36:41.383Z,521.00
2023-05-21T06:37:41.402Z,518.00
2023-05-21T06:38:41.352Z,524.00
2023-05-21T06:39:41.363Z,519.00
2023-05-21T06:40:41.345Z,518.00
2023-05-21T06:41:41.321Z,519.00
2023-05-21T06:42:41.311Z,517.00
2023-05-21T06:43:41.285Z,518.00
2023-05-21T06:44:41.325Z,518.00
2023-05-21T06:45:41.588Z,522.00
2023-05-21T06:46:41.279Z,522.00
2023-05-21T06:47:41.338Z,520.00
2023-05-21T06:48:41.280Z,520.00
2023-05-21T06:49:41.277Z,517.00
2023-05-21T06:50:41.754Z,524.00
2023-05-21T06:51:41.257Z,521.00
2023-05-21T06:52:41.254Z,517.00
2023-05-21T06:53:41.233Z,520.00
2023-05-21T06:54:41.231Z,520.00
2023-05-21T06:55:41.312Z,523.00
2023-05-21T06:56:41.205Z,524.00
2023-05-21T06:57:41.209Z,522.00
2023-05-21T06:58:41.222Z,522.00
2023-05-21T06:59:41.186Z,521.00
2023-05-21T07:00:41.242Z,521.00
2023-05-21T07:01:41.226Z,520.00
2023-05-21T07:02:41.212Z,522.00
2023-05-21T07:03:41.208Z,523.00
2023-05-21T07:04:41.165Z,522.00
2023-05-21T07:05:41.138Z,522.00
2023-05-21T07:06:41.114Z,525.00
2023-05-21T07:07:41.117Z,524.00
2023-05-21T07:08:41.129Z,524.00
2023-05-21T07:09:41.128Z,524.00
2023-05-21T07:10:41.125Z,521.00
2023-05-21T07:11:41.122Z,522.00
2023-05-21T07:12:41.090Z,520.00
2023-05-21T07:13:41.065Z,524.00
2023-05-21T07:14:41.080Z,523.00
2023-05-21T07:15:41.337Z,527.00
2023-05-21T07:16:41.136Z,521.00
2023-05-21T07:17:41.131Z,524.00
2023-05-21T07:18:41.055Z,527.00
2023-05-21T07:19:41.028Z,526.00
2023-05-21T07:20:41.274Z,525.00
2023-05-21T07:21:41.038Z,526.00
2023-05-21T07:22:41.004Z,525.00
2023-05-21T07:23:41.036Z,525.00
2023-05-21T07:24:41.000Z,525.00
2023-05-21T07:25:41.280Z,526.00
2023-05-21T07:26:41.010Z,527.00
2023-05-21T07:27:40.968Z,523.00
2023-05-21T07:28:40.975Z,526.00
2023-05-21T07:29:40.952Z,525.00
2023-05-21T07:30:41.342Z,526.00
2023-05-21T07:31:41.011Z,524.00
2023-05-21T07:32:40.979Z,527.00
2023-05-21T07:33:40.955Z,529.00
2023-05-21T07:34:40.962Z,526.00
2023-05-21T07:35:41.293Z,530.00
2023-05-21T07:36:40.989Z,528.00
2023-05-21T07:37:41.011Z,524.00
2023-05-21T07:38:41.018Z,528.00
2023-05-21T07:39:41.039Z,526.00
2023-05-21T07:40:41.052Z,533.00
2023-05-21T07:41:41.048Z,530.00
2023-05-21T07:42:41.082Z,525.00
2023-05-21T07:43:41.086Z,528.00
2023-05-21T07:44:41.104Z,527.00
2023-05-21T07:45:41.099Z,532.00
2023-05-21T07:46:41.192Z,528.00
2023-05-21T07:47:41.122Z,528.00
2023-05-21T07:48:41.134Z,527.00
2023-05-21T07:49:41.115Z,531.00
2023-05-21T07:50:41.179Z,528.00
2023-05-21T07:51:41.134Z,530.00
2023-05-21T07:52:41.242Z,528.00
2023-05-21T07:53:41.193Z,529.00
2023-05-21T07:54:41.176Z,531.00
2023-05-21T07:55:41.204Z,527.00
2023-05-21T07:56:41.215Z,530.00
2023-05-21T07:57:41.232Z,528.00
2023-05-21T07:58:41.232Z,527.00
2023-05-21T07:59:41.272Z,527.00
2023-05-21T08:00:41.266Z,530.00
2023-05-21T08:01:41.267Z,531.00
2023-05-21T08:02:41.471Z,527.00
2023-05-21T08:03:41.399Z,530.00
2023-05-21T08:04:41.580Z,531.00
2023-05-21T08:05:41.309Z,531.00
2023-05-21T08:06:41.321Z,530.00
2023-05-21T08:07:41.401Z,527.00
2023-05-21T08:08:41.353Z,531.00
2023-05-21T08:09:41.359Z,522.00
2023-05-21T08:10:41.399Z,529.00
2023-05-21T08:11:41.386Z,530.00
2023-05-21T08:12:41.458Z,530.00
2023-05-21T08:13:41.434Z,532.00
2023-05-21T08:14:41.455Z,526.00
2023-05-21T08:15:41.465Z,530.00
2023-05-21T08:16:42.430Z,532.00
2023-05-21T08:17:41.543Z,531.00
2023-05-21T08:18:41.482Z,533.00
2023-05-21T08:19:41.464Z,533.00
2023-05-21T08:20:41.838Z,532.00
2023-05-21T08:21:41.515Z,533.00
2023-05-21T08:22:41.511Z,535.00
2023-05-21T08:23:41.510Z,529.00
2023-05-21T08:24:41.554Z,533.00
2023-05-21T08:25:41.538Z,531.00
2023-05-21T08:26:41.560Z,532.00
2023-05-21T08:27:41.580Z,530.00
2023-05-21T08:28:41.561Z,532.00
2023-05-21T08:29:41.589Z,529.00
2023-05-21T08:30:41.637Z,531.00
2023-05-21T08:31:41.644Z,532.00
2023-05-21T08:32:41.709Z,531.00
2023-05-21T08:33:41.615Z,530.00
2023-05-21T08:34:41.641Z,534.00
2023-05-21T08:35:41.653Z,532.00
2023-05-21T08:36:41.642Z,533.00
2023-05-21T08:37:41.661Z,533.00
2023-05-21T08:38:41.663Z,535.00
2023-05-21T08:39:41.660Z,533.00
2023-05-21T08:40:41.704Z,532.00
2023-05-21T08:41:41.683Z,534.00
2023-05-21T08:42:41.729Z,526.00
2023-05-21T08:43:41.693Z,532.00
2023-05-21T08:44:41.711Z,531.00
2023-05-21T08:45:41.722Z,532.00
2023-05-21T08:46:41.734Z,536.00
2023-05-21T08:47:41.799Z,531.00
2023-05-21T08:48:41.802Z,533.00
2023-05-21T08:49:41.775Z,534.00
2023-05-21T08:50:41.815Z,531.00
2023-05-21T08:51:41.865Z,532.00
2023-05-21T08:52:41.820Z,532.00
2023-05-21T08:53:41.847Z,533.00
2023-05-21T08:54:41.870Z,533.00
2023-05-21T08:55:42.305Z,537.00
2023-05-21T08:56:41.865Z,535.00
2023-05-21T08:57:41.915Z,534.00
2023-05-21T08:58:41.913Z,533.00
2023-05-21T08:59:41.923Z,531.00
2023-05-21T09:00:41.895Z,533.00
2023-05-21T09:01:41.997Z,532.00
2023-05-21T09:02:41.951Z,532.00
2023-05-21T09:03:41.969Z,534.00
2023-05-21T09:04:41.961Z,533.00
2023-05-21T09:05:41.951Z,528.00
2023-05-21T09:06:41.982Z,529.00
2023-05-21T09:07:41.986Z,534.00
2023-05-21T09:08:42.005Z,536.00
2023-05-21T09:09:42.034Z,538.00
2023-05-21T09:10:42.043Z,533.00
2023-05-21T09:11:42.038Z,537.00
2023-05-21T09:12:42.082Z,538.00
2023-05-21T09:13:42.049Z,537.00
2023-05-21T09:14:42.087Z,535.00
2023-05-21T09:15:42.105Z,536.00
2023-05-21T09:16:42.177Z,536.00
2023-05-21T09:17:42.147Z,536.00
2023-05-21T09:18:42.155Z,536.00
2023-05-21T09:19:42.190Z,536.00
2023-05-21T09:20:42.356Z,532.00
2023-05-21T09:21:42.201Z,537.00
2023-05-21T09:22:42.166Z,535.00
2023-05-21T09:23:42.195Z,537.00
2023-05-21T09:24:42.168Z,537.00
2023-05-21T09:25:42.214Z,539.00
2023-05-21T09:26:42.211Z,535.00
2023-05-21T09:27:42.196Z,534.00
2023-05-21T09:28:42.239Z,535.00
2023-05-21T09:29:42.240Z,535.00
2023-05-21T09:30:42.236Z,540.00
2023-05-21T09:31:42.272Z,536.00
2023-05-21T09:32:42.285Z,539.00
2023-05-21T09:33:42.272Z,538.00
2023-05-21T09:34:42.245Z,537.00
2023-05-21T09:35:42.270Z,537.00
2023-05-21T09:36:42.258Z,537.00
2023-05-21T09:37:42.294Z,535.00
2023-05-21T09:38:42.293Z,536.00
2023-05-21T09:39:42.306Z,535.00
2023-05-21T09:40:42.332Z,539.00
2023-05-21T09:41:42.337Z,532.00
2023-05-21T09:42:42.357Z,539.00
2023-05-21T09:43:42.403Z,538.00
2023-05-21T09:44:42.391Z,537.00
2023-05-21T09:45:42.865Z,536.00
2023-05-21T09:46:42.652Z,536.00
2023-05-21T09:47:42.499Z,537.00
2023-05-21T09:48:42.448Z,537.00
2023-05-21T09:49:42.488Z,534.00
2023-05-21T09:50:42.842Z,540.00
2023-05-21T09:51:42.475Z,536.00
2023-05-21T09:52:42.485Z,537.00
2023-05-21T09:53:42.486Z,535.00
2023-05-21T09:54:42.496Z,539.00
2023-05-21T09:55:42.852Z,536.00
2023-05-21T09:56:42.516Z,540.00
2023-05-21T09:57:42.549Z,536.00
2023-05-21T09:58:42.564Z,529.00
2023-05-21T09:59:42.565Z,537.00
2023-05-21T10:00:42.592Z,535.00
2023-05-21T10:01:42.639Z,538.00
2023-05-21T10:02:42.650Z,538.00
2023-05-21T10:03:42.637Z,537.00
2023-05-21T10:04:42.764Z,536.00
2023-05-21T10:05:42.644Z,529.00
2023-05-21T10:06:42.651Z,533.00
2023-05-21T10:07:42.642Z,536.00
2023-05-21T10:08:42.675Z,537.00
2023-05-21T10:09:42.672Z,532.00
2023-05-21T10:10:42.665Z,537.00
2023-05-21T10:11:42.695Z,533.00
2023-05-21T10:12:42.680Z,538.00
2023-05-21T10:13:42.688Z,536.00
2023-05-21T10:14:42.744Z,536.00
2023-05-21T10:15:42.731Z,536.00
2023-05-21T10:16:42.780Z,537.00
2023-05-21T10:17:42.762Z,534.00
2023-05-21T10:18:42.791Z,533.00
2023-05-21T10:19:42.754Z,535.00
2023-05-21T10:20:42.898Z,534.00
2023-05-21T10:21:42.788Z,535.00
2023-05-21T10:22:42.785Z,540.00
2023-05-21T10:23:42.792Z,537.00
2023-05-21T10:24:42.845Z,535.00
2023-05-21T10:25:42.820Z,537.00
2023-05-21T10:26:42.813Z,532.00
2023-05-21T10:27:42.829Z,540.00
2023-05-21T10:28:42.841Z,537.00
2023-05-21T10:29:42.842Z,539.00
2023-05-21T10:30:42.849Z,534.00
2023-05-21T10:31:42.897Z,539.00
2023-05-21T10:32:43.034Z,535.00
2023-05-21T10:33:42.930Z,540.00
2023-05-21T10:34:42.913Z,535.00
2023-05-21T10:35:42.888Z,534.00
2023-05-21T10:36:42.918Z,538.00
2023-05-21T10:37:42.910Z,536.00
2023-05-21T10:38:42.945Z,529.00
2023-05-21T10:39:42.916Z,534.00
2023-05-21T10:40:42.922Z,528.00
2023-05-21T10:41:42.939Z,539.00
2023-05-21T10:42:42.910Z,535.00
2023-05-21T10:43:42.911Z,536.00
2023-05-21T10:44:42.932Z,536.00
2023-05-21T10:45:42.964Z,542.00
2023-05-21T10:46:42.890Z,543.00
2023-05-21T10:47:42.951Z,541.00
2023-05-21T10:48:42.914Z,534.00
2023-05-21T10:49:42.864Z,539.00
2023-05-21T10:50:42.845Z,540.00
2023-05-21T10:51:42.888Z,541.00
2023-05-21T10:52:42.857Z,544.00
2023-05-21T10:53:42.877Z,538.00
2023-05-21T10:54:42.844Z,535.00
2023-05-21T10:55:42.858Z,536.00
2023-05-21T10:56:42.860Z,540.00
2023-05-21T10:57:42.832Z,537.00
2023-05-21T10:58:42.824Z,536.00
2023-05-21T10:59:42.863Z,538.00
2023-05-21T11:00:42.855Z,538.00
2023-05-21T11:01:42.909Z,541.00
2023-05-21T11:02:42.919Z,538.00
2023-05-21T11:03:42.933Z,538.00
2023-05-21T11:04:42.826Z,538.00
2023-05-21T11:05:42.829Z,541.00
2023-05-21T11:06:42.835Z,541.00
2023-05-21T11:07:42.834Z,537.00
2023-05-21T11:08:42.793Z,533.00
2023-05-21T11:09:42.819Z,537.00
2023-05-21T11:10:42.798Z,537.00
2023-05-21T11:11:42.833Z,538.00
2023-05-21T11:12:42.811Z,531.00
2023-05-21T11:13:42.816Z,537.00
2023-05-21T11:14:42.790Z,537.00
2023-05-21T11:15:42.814Z,537.00
2023-05-21T11:16:42.943Z,538.00
2023-05-21T11:17:42.777Z,535.00
2023-05-21T11:18:42.798Z,538.00
2023-05-21T11:19:42.888Z,540.00
2023-05-21T11:20:42.774Z,532.00
2023-05-21T11:21:42.938Z,533.00
2023-05-21T11:22:42.769Z,536.00
2023-05-21T11:23:42.764Z,538.00
2023-05-21T11:24:42.768Z,531.00
2023-05-21T11:25:42.753Z,539.00
2023-05-21T11:26:42.896Z,536.00
2023-05-21T11:27:42.753Z,538.00
2023-05-21T11:28:42.753Z,537.00
2023-05-21T11:29:42.825Z,529.00
2023-05-21T11:30:42.903Z,537.00
2023-05-21T11:31:42.966Z,534.00
2023-05-21T11:32:42.771Z,535.00
2023-05-21T11:33:42.815Z,538.00
2023-05-21T11:34:42.819Z,534.00
2023-05-21T11:35:42.828Z,540.00
2023-05-21T11:36:42.890Z,538.00
2023-05-21T11:37:42.788Z,534.00
2023-05-21T11:38:42.798Z,529.00
2023-05-21T11:39:42.851Z,531.00
2023-05-21T11:40:42.855Z,519.00
2023-05-21T11:41:42.839Z,532.00
2023-05-21T11:42:42.818Z,538.00
2023-05-21T11:43:42.800Z,531.00
2023-05-21T11:44:42.812Z,534.00
2023-05-21T11:45:42.812Z,534.00
2023-05-21T11:46:42.840Z,528.00
2023-05-21T11:47:42.854Z,536.00
2023-05-21T11:48:42.790Z,533.00
2023-05-21T11:49:42.798Z,530.00
2023-05-21T11:50:42.807Z,530.00
2023-05-21T11:51:42.912Z,528.00
2023-05-21T11:52:42.779Z,529.00
2023-05-21T11:53:44.195Z,529.00
2023-05-21T11:54:42.821Z,535.00
2023-05-21T11:55:42.819Z,528.00
2023-05-21T11:56:42.803Z,534.00
2023-05-21T11:57:42.844Z,524.00
2023-05-21T11:58:42.891Z,539.00
2023-05-21T11:59:42.893Z,527.00
2023-05-21T12:00:42.868Z,535.00
2023-05-21T12:01:42.903Z,538.00
2023-05-21T12:02:42.917Z,537.00
2023-05-21T12:03:42.990Z,535.00
2023-05-21T12:04:42.866Z,531.00
2023-05-21T12:05:42.976Z,532.00
2023-05-21T12:06:42.921Z,531.00
2023-05-21T12:07:42.865Z,526.00
2023-05-21T12:08:42.893Z,539.00
2023-05-21T12:09:42.972Z,534.00
2023-05-21T12:10:44.373Z,530.00
2023-05-21T12:11:43.120Z,532.00
2023-05-21T12:12:53.777Z,532.00
2023-05-21T12:13:44.186Z,532.00
2023-05-21T12:14:43.088Z,532.00
2023-05-21T12:15:43.104Z,528.00
2023-05-21T12:16:43.108Z,532.00
2023-05-21T12:17:43.125Z,529.00
2023-05-21T12:18:43.260Z,537.00
2023-05-21T12:19:43.071Z,530.00
2023-05-21T12:20:43.025Z,530.00
2023-05-21T12:21:43.055Z,534.00
2023-05-21T12:22:43.028Z,527.00
2023-05-21T12:23:43.022Z,522.00
2023-05-21T12:24:43.042Z,525.00
2023-05-21T12:25:43.003Z,526.00
2023-05-21T12:26:43.015Z,517.00
2023-05-21T12:27:42.993Z,526.00
2023-05-21T12:28:42.983Z,532.00